createdAt,value
2023-07-31T00:01:16.443Z,4.30
2023-07-31T00:03:43.028Z,5.10
2023-07-31T00:06:09.652Z,8.02
2023-07-31T00:08:36.195Z,8.07
2023-07-31T00:11:02.768Z,5.55
2023-07-31T00:13:29.368Z,6.80
2023-07-31T00:15:56.145Z,10.15
2023-07-31T00:18:22.718Z,9.40
2023-07-31T00:20:49.454Z,8.60
2023-07-31T00:23:16.015Z,7.45
2023-07-31T00:25:43.065Z,8.15
2023-07-31T00:28:09.663Z,6.68
2023-07-31T00:30:36.224Z,6.90
2023-07-31T00:33:02.872Z,6.55
2023-07-31T00:35:29.514Z,11.57
2023-07-31T00:37:58.839Z,14.63
2023-07-31T00:40:25.480Z,11.63
2023-07-31T00:42:52.057Z,11.65
2023-07-31T00:45:18.740Z,15.00
2023-07-31T00:47:45.889Z,11.45
2023-07-31T00:50:12.527Z,7.75
2023-07-31T00:52:39.096Z,7.60
2023-07-31T00:55:06.136Z,11.82
2023-07-31T00:57:34.053Z,10.23
2023-07-31T01:00:01.186Z,11.60
2023-07-31T01:02:27.965Z,9.73
2023-07-31T01:04:54.682Z,14.55
2023-07-31T01:07:46.415Z,10.00
2023-07-31T01:10:26.640Z,10.05
2023-07-31T01:12:54.726Z,9.90
2023-07-31T01:15:22.160Z,12.18
2023-07-31T01:17:48.941Z,9.68
2023-07-31T01:20:23.997Z,15.98
2023-07-31T01:23:18.698Z,6.82
2023-07-31T01:25:54.442Z,9.68
2023-07-31T01:28:24.450Z,11.00
2023-07-31T01:30:51.220Z,8.02
2023-07-31T01:33:17.952Z,15.40
2023-07-31T01:35:49.980Z,7.30
2023-07-31T01:38:16.558Z,8.85
2023-07-31T01:40:43.741Z,7.80
2023-07-31T01:43:10.540Z,8.60
2023-07-31T01:45:37.220Z,9.55
2023-07-31T01:48:03.878Z,11.35
2023-07-31T01:50:30.524Z,6.88
2023-07-31T01:52:57.208Z,13.07
2023-07-31T01:55:23.796Z,11.20
2023-07-31T01:57:50.426Z,7.80
2023-07-31T02:00:17.091Z,8.13
2023-07-31T02:02:43.730Z,7.95
2023-07-31T02:05:10.446Z,8.95
2023-07-31T02:07:37.054Z,5.95
2023-07-31T02:10:03.823Z,7.60
2023-07-31T02:12:33.082Z,6.05
2023-07-31T02:14:59.696Z,8.02
2023-07-31T02:17:26.439Z,6.97
2023-07-31T02:19:54.070Z,10.93
2023-07-31T02:22:20.922Z,8.90
2023-07-31T02:24:47.625Z,10.00
2023-07-31T02:27:14.241Z,7.43
2023-07-31T02:29:40.813Z,8.45
2023-07-31T02:32:07.636Z,9.13
2023-07-31T02:34:34.261Z,7.55
2023-07-31T02:37:01.845Z,8.73
2023-07-31T02:39:28.471Z,7.75
2023-07-31T02:41:55.058Z,8.52
2023-07-31T02:44:22.208Z,8.00
2023-07-31T02:46:48.783Z,9.38
2023-07-31T02:49:15.300Z,7.47
2023-07-31T02:51:41.879Z,9.40
2023-07-31T02:54:08.490Z,8.18
2023-07-31T02:56:35.110Z,10.40
2023-07-31T02:59:01.650Z,6.93
2023-07-31T03:01:28.230Z,7.05
2023-07-31T03:03:54.814Z,6.50
2023-07-31T03:06:21.546Z,6.00
2023-07-31T03:08:48.093Z,6.55
2023-07-31T03:11:14.726Z,9.88
2023-07-31T03:13:41.344Z,8.15
2023-07-31T03:16:07.938Z,10.13
2023-07-31T03:18:34.623Z,9.20
2023-07-31T03:21:01.164Z,6.80
2023-07-31T03:23:27.732Z,8.77
2023-07-31T03:26:01.879Z,7.88
2023-07-31T03:28:28.560Z,6.55
2023-07-31T03:30:55.277Z,4.88
2023-07-31T03:33:21.965Z,13.23
2023-07-31T03:35:48.563Z,14.00
2023-07-31T03:38:15.157Z,5.43
2023-07-31T03:40:41.792Z,6.05
2023-07-31T03:43:08.407Z,8.15
2023-07-31T03:45:34.977Z,10.55
2023-07-31T03:48:01.612Z,9.93
2023-07-31T03:50:28.220Z,5.57
2023-07-31T03:52:54.803Z,13.18
2023-07-31T03:55:22.806Z,9.65
2023-07-31T03:57:49.430Z,8.48
2023-07-31T04:00:16.179Z,8.23
2023-07-31T04:02:42.792Z,9.07
2023-07-31T04:05:09.424Z,10.27
2023-07-31T04:07:36.129Z,11.10
2023-07-31T04:10:02.819Z,11.13
2023-07-31T04:12:29.383Z,9.27
2023-07-31T04:14:55.989Z,10.55
2023-07-31T04:17:22.736Z,7.45
2023-07-31T04:19:49.418Z,5.78
2023-07-31T04:22:15.951Z,7.82
2023-07-31T04:24:42.540Z,7.25
2023-07-31T04:27:09.114Z,12.50
2023-07-31T04:29:35.757Z,10.60
2023-07-31T04:32:02.346Z,10.98
2023-07-31T04:34:28.939Z,9.65
2023-07-31T04:36:55.518Z,8.68
2023-07-31T04:39:22.101Z,8.57
2023-07-31T04:41:48.632Z,9.85
2023-07-31T04:44:15.441Z,7.97
2023-07-31T04:46:42.402Z,7.78
2023-07-31T04:49:09.255Z,12.23
2023-07-31T04:51:35.876Z,12.43
2023-07-31T04:54:02.500Z,10.25
2023-07-31T04:56:29.124Z,15.43
2023-07-31T04:58:56.083Z,8.82
2023-07-31T05:01:22.741Z,12.43
2023-07-31T05:03:49.520Z,11.00
2023-07-31T05:06:16.507Z,7.82
2023-07-31T05:08:43.138Z,11.15
2023-07-31T05:11:09.735Z,9.30
2023-07-31T05:13:36.324Z,10.68
2023-07-31T05:16:03.680Z,10.50
2023-07-31T05:18:30.470Z,10.65
2023-07-31T05:20:57.064Z,12.93
2023-07-31T05:23:23.635Z,13.35
2023-07-31T05:25:50.219Z,11.20
2023-07-31T05:28:16.812Z,10.52
2023-07-31T05:30:43.822Z,9.23
2023-07-31T05:33:12.241Z,10.00
2023-07-31T05:35:40.460Z,10.23
2023-07-31T05:38:07.670Z,9.77
2023-07-31T05:40:34.684Z,11.05
2023-07-31T05:43:01.283Z,11.18
2023-07-31T05:45:28.060Z,9.77
2023-07-31T05:47:55.092Z,10.25
2023-07-31T05:50:21.893Z,8.68
2023-07-31T05:52:48.657Z,9.85
2023-07-31T05:55:15.369Z,11.32
2023-07-31T05:57:41.963Z,12.73
2023-07-31T06:00:09.170Z,10.05
2023-07-31T06:02:38.086Z,7.70
2023-07-31T06:05:07.293Z,11.65
2023-07-31T06:07:34.013Z,7.72
2023-07-31T06:10:06.163Z,8.35
2023-07-31T06:12:34.327Z,8.15
2023-07-31T06:15:01.156Z,7.15
2023-07-31T06:17:27.921Z,6.45
2023-07-31T06:19:55.037Z,9.98
2023-07-31T06:22:21.667Z,10.30
2023-07-31T06:24:48.434Z,7.03
2023-07-31T06:27:15.285Z,6.00
2023-07-31T06:29:42.394Z,6.70
2023-07-31T06:32:09.317Z,6.07
2023-07-31T06:34:36.095Z,10.68
2023-07-31T06:37:02.742Z,7.63
2023-07-31T06:39:29.369Z,8.80
2023-07-31T06:41:56.021Z,8.35
2023-07-31T06:44:22.935Z,6.68
2023-07-31T06:46:49.672Z,8.90
2023-07-31T06:49:17.363Z,7.43
2023-07-31T06:51:45.320Z,7.05
2023-07-31T06:54:12.422Z,7.57
2023-07-31T06:56:41.082Z,7.93
2023-07-31T06:59:08.289Z,5.43
2023-07-31T07:01:34.895Z,6.35
2023-07-31T07:04:01.620Z,7.20
2023-07-31T07:06:28.270Z,6.30
2023-07-31T07:08:54.852Z,7.18
2023-07-31T07:11:21.428Z,6.10
2023-07-31T07:13:48.004Z,4.97
2023-07-31T07:16:14.864Z,8.40
2023-07-31T07:18:46.757Z,6.07
2023-07-31T07:21:19.179Z,8.40
2023-07-31T07:23:45.849Z,4.47
2023-07-31T07:26:13.766Z,5.65
2023-07-31T07:28:40.464Z,4.85
2023-07-31T07:31:07.167Z,4.53
2023-07-31T07:33:33.837Z,5.78
2023-07-31T07:36:03.795Z,6.03
2023-07-31T07:38:30.320Z,13.27
2023-07-31T07:40:56.939Z,6.65
2023-07-31T07:43:23.487Z,5.32
2023-07-31T07:45:50.941Z,6.88
2023-07-31T07:48:18.557Z,5.28
2023-07-31T07:50:45.302Z,3.03
2023-07-31T07:53:11.974Z,5.20
2023-07-31T07:55:38.637Z,5.07
2023-07-31T07:58:06.371Z,5.30
2023-07-31T08:00:33.027Z,7.00
2023-07-31T08:02:59.922Z,10.90
2023-07-31T08:05:26.621Z,6.13
2023-07-31T08:07:53.205Z,9.40
2023-07-31T08:10:19.815Z,5.50
2023-07-31T08:12:46.323Z,7.85
2023-07-31T08:15:12.990Z,8.05
2023-07-31T08:17:39.629Z,9.13
2023-07-31T08:20:09.524Z,9.55
2023-07-31T08:22:36.111Z,5.82
2023-07-31T08:25:02.749Z,4.90
2023-07-31T08:27:30.562Z,7.90
2023-07-31T08:29:57.171Z,6.60
2023-07-31T08:32:23.959Z,7.18
2023-07-31T08:34:50.824Z,4.05
2023-07-31T08:37:17.529Z,6.30
2023-07-31T08:39:44.207Z,6.15
2023-07-31T08:42:10.790Z,5.30
2023-07-31T08:44:37.820Z,5.13
2023-07-31T08:47:04.857Z,4.32
2023-07-31T08:49:32.027Z,3.88
2023-07-31T08:51:59.338Z,4.40
2023-07-31T08:54:26.022Z,3.30
2023-07-31T08:56:54.265Z,3.13
2023-07-31T08:59:22.467Z,6.30
2023-07-31T09:01:51.692Z,3.88
2023-07-31T09:04:21.111Z,3.03
2023-07-31T09:06:49.554Z,4.82
2023-07-31T09:09:17.315Z,5.07
2023-07-31T09:11:44.002Z,2.47
2023-07-31T09:14:11.672Z,2.13
2023-07-31T09:16:53.970Z,4.15
2023-07-31T09:19:28.341Z,3.70
2023-07-31T09:21:55.459Z,7.15
2023-07-31T09:24:29.668Z,2.15
2023-07-31T09:27:00.644Z,2.35
2023-07-31T09:29:28.814Z,1.88
2023-07-31T09:31:56.329Z,1.63
2023-07-31T09:34:30.775Z,1.50
2023-07-31T09:37:02.181Z,2.45
2023-07-31T09:39:28.983Z,3.13
2023-07-31T09:41:56.908Z,3.00
2023-07-31T09:44:38.887Z,3.70
2023-07-31T09:47:05.884Z,2.15
2023-07-31T09:49:32.950Z,2.53
2023-07-31T09:51:59.655Z,1.80
2023-07-31T09:54:26.322Z,5.15
2023-07-31T09:56:53.476Z,2.97
2023-07-31T09:59:24.237Z,1.88
2023-07-31T10:01:51.965Z,2.05
2023-07-31T10:04:21.957Z,2.22
2023-07-31T10:06:50.788Z,1.95
2023-07-31T10:09:20.196Z,2.55
2023-07-31T10:11:57.218Z,2.40
2023-07-31T10:14:25.318Z,3.35
2023-07-31T10:16:52.296Z,1.65
2023-07-31T10:19:20.373Z,1.83
2023-07-31T10:21:48.206Z,3.70
2023-07-31T10:24:16.104Z,1.65
2023-07-31T10:26:47.073Z,1.10
2023-07-31T10:29:14.087Z,1.70
2023-07-31T10:31:41.157Z,1.52
2023-07-31T10:34:07.856Z,1.38
2023-07-31T10:36:34.831Z,2.83
2023-07-31T10:39:05.273Z,1.65
2023-07-31T10:41:32.465Z,1.30
2023-07-31T10:44:00.756Z,1.85
2023-07-31T10:46:29.724Z,1.10
2023-07-31T10:49:01.651Z,2.47
2023-07-31T10:51:38.789Z,0.80
2023-07-31T10:54:16.234Z,2.42
2023-07-31T10:56:47.563Z,0.90
2023-07-31T10:59:15.126Z,3.40
2023-07-31T11:01:55.580Z,2.08
2023-07-31T11:04:28.662Z,1.43
2023-07-31T11:07:03.773Z,2.63
2023-07-31T11:09:33.410Z,1.77
2023-07-31T11:12:00.850Z,2.50
2023-07-31T11:14:27.632Z,2.13
2023-07-31T11:16:54.370Z,1.98
2023-07-31T11:19:25.177Z,3.80
2023-07-31T11:21:54.848Z,4.00
2023-07-31T11:24:21.996Z,2.17
2023-07-31T11:26:54.784Z,3.75
2023-07-31T11:29:21.734Z,2.13
2023-07-31T11:31:49.931Z,4.32
2023-07-31T11:34:16.472Z,2.88
2023-07-31T11:36:54.060Z,2.75
2023-07-31T11:39:20.618Z,3.40
2023-07-31T11:41:47.222Z,2.50
2023-07-31T11:44:27.110Z,3.75
2023-07-31T11:46:57.894Z,2.72
2023-07-31T11:49:24.622Z,2.72
2023-07-31T11:51:51.374Z,3.85
2023-07-31T11:54:18.084Z,3.22
2023-07-31T11:56:44.919Z,2.65
2023-07-31T11:59:13.282Z,2.60
2023-07-31T12:01:40.097Z,2.97
2023-07-31T12:04:06.834Z,1.58
2023-07-31T12:06:35.480Z,1.60
2023-07-31T12:09:06.354Z,2.40
2023-07-31T12:11:44.052Z,1.55
2023-07-31T12:14:32.189Z,1.85
2023-07-31T12:17:05.641Z,2.33
2023-07-31T12:19:32.797Z,2.83
2023-07-31T12:22:00.549Z,2.55
2023-07-31T12:24:30.269Z,3.65
2023-07-31T12:26:56.860Z,4.18
2023-07-31T12:29:23.520Z,4.13
2023-07-31T12:31:50.169Z,1.95
2023-07-31T12:34:19.121Z,2.05
2023-07-31T12:36:45.831Z,8.80
2023-07-31T12:39:13.926Z,3.60
2023-07-31T12:41:40.512Z,2.95
2023-07-31T12:44:07.096Z,4.93
2023-07-31T12:46:34.193Z,2.63
2023-07-31T12:49:00.904Z,4.82
2023-07-31T12:51:27.475Z,4.07
2023-07-31T12:53:54.090Z,3.25
2023-07-31T12:56:20.776Z,5.20
2023-07-31T12:58:47.317Z,4.53
2023-07-31T13:01:13.993Z,4.78
2023-07-31T13:03:40.629Z,3.55
2023-07-31T13:06:07.340Z,5.72
2023-07-31T13:08:33.880Z,5.00
2023-07-31T13:11:00.461Z,3.50
2023-07-31T13:13:27.021Z,2.75
2023-07-31T13:15:53.713Z,4.50
2023-07-31T13:18:20.311Z,6.07
2023-07-31T13:20:46.972Z,2.60
2023-07-31T13:23:13.558Z,3.45
2023-07-31T13:25:40.225Z,1.60
2023-07-31T13:28:06.793Z,1.50
2023-07-31T13:30:34.468Z,1.65
2023-07-31T13:33:01.076Z,1.75
2023-07-31T13:35:27.749Z,1.40
2023-07-31T13:37:54.346Z,3.75
2023-07-31T13:40:20.950Z,2.40
2023-07-31T13:42:48.873Z,1.30
2023-07-31T13:45:15.649Z,1.70
2023-07-31T13:47:42.345Z,1.67
2023-07-31T13:50:09.329Z,3.60
2023-07-31T13:52:35.896Z,1.00
2023-07-31T13:55:02.444Z,0.90
2023-07-31T13:57:29.568Z,1.55
2023-07-31T13:59:56.136Z,1.90
2023-07-31T14:02:22.790Z,1.05
2023-07-31T14:04:49.463Z,1.77
2023-07-31T14:07:16.066Z,1.88
2023-07-31T14:09:42.663Z,1.67
2023-07-31T14:12:09.328Z,3.00
2023-07-31T14:14:35.979Z,2.78
2023-07-31T14:17:02.974Z,3.20
2023-07-31T14:19:30.030Z,3.03
2023-07-31T14:22:10.303Z,3.10
2023-07-31T14:24:37.866Z,3.05
2023-07-31T14:27:04.664Z,3.60
2023-07-31T14:29:31.346Z,8.90
2023-07-31T14:31:57.989Z,4.85
2023-07-31T14:34:24.593Z,3.90
2023-07-31T14:36:51.150Z,7.68
2023-07-31T14:39:17.944Z,6.63
2023-07-31T14:41:44.508Z,4.10
2023-07-31T14:44:11.101Z,6.70
2023-07-31T14:46:37.952Z,4.63
2023-07-31T14:49:04.887Z,4.68
2023-07-31T14:51:31.453Z,3.28
2023-07-31T14:53:58.015Z,4.18
2023-07-31T14:56:24.605Z,3.63
2023-07-31T14:58:51.204Z,4.53
2023-07-31T15:01:17.814Z,3.20
2023-07-31T15:03:44.513Z,3.83
2023-07-31T15:06:13.074Z,3.75
2023-07-31T15:08:39.928Z,3.22
2023-07-31T15:11:06.525Z,2.47
2023-07-31T15:13:33.177Z,3.85
2023-07-31T15:16:00.012Z,5.20
2023-07-31T15:18:26.978Z,4.20
2023-07-31T15:20:54.574Z,4.22
2023-07-31T15:23:21.148Z,4.05
2023-07-31T15:25:47.708Z,5.45
2023-07-31T15:28:14.332Z,7.70
2023-07-31T15:30:41.004Z,4.53
2023-07-31T15:33:07.617Z,3.38
2023-07-31T15:35:34.288Z,3.25
2023-07-31T15:38:00.809Z,3.35
2023-07-31T15:40:27.391Z,4.55
2023-07-31T15:42:53.968Z,2.70
2023-07-31T15:45:20.597Z,5.40
2023-07-31T15:47:47.260Z,2.78
2023-07-31T15:50:13.858Z,3.88
2023-07-31T15:52:40.459Z,3.88
2023-07-31T15:55:07.545Z,5.68
2023-07-31T15:57:34.376Z,2.13
2023-07-31T16:00:01.111Z,4.82
2023-07-31T16:02:27.719Z,2.63
2023-07-31T16:04:54.537Z,3.80
2023-07-31T16:07:22.480Z,4.20
2023-07-31T16:09:50.429Z,6.88
2023-07-31T16:12:17.094Z,2.47
2023-07-31T16:14:43.991Z,5.35
2023-07-31T16:17:10.767Z,5.70
2023-07-31T16:19:38.504Z,2.22
2023-07-31T16:22:05.591Z,2.53
2023-07-31T16:24:32.512Z,3.63
2023-07-31T16:26:59.160Z,4.80
2023-07-31T16:29:25.728Z,4.32
2023-07-31T16:31:58.035Z,3.13
2023-07-31T16:34:27.533Z,2.55
2023-07-31T16:36:57.247Z,5.22
2023-07-31T16:39:24.076Z,4.47
2023-07-31T16:41:51.047Z,3.15
2023-07-31T16:44:17.830Z,2.22
2023-07-31T16:46:44.549Z,2.60
2023-07-31T16:49:11.250Z,1.85
2023-07-31T16:51:38.256Z,2.60
2023-07-31T16:54:05.127Z,7.15
2023-07-31T16:56:38.991Z,2.83
2023-07-31T16:59:17.989Z,2.00
2023-07-31T17:01:44.992Z,5.85
2023-07-31T17:04:12.062Z,2.50
2023-07-31T17:06:38.814Z,3.70
2023-07-31T17:09:05.380Z,2.33
2023-07-31T17:11:31.978Z,2.53
2023-07-31T17:13:58.577Z,3.65
2023-07-31T17:16:25.433Z,2.63
2023-07-31T17:18:51.974Z,3.40
2023-07-31T17:21:18.493Z,4.13
2023-07-31T17:23:45.054Z,6.50
2023-07-31T17:26:13.419Z,3.42
2023-07-31T17:28:43.015Z,4.00
2023-07-31T17:31:09.603Z,4.20
2023-07-31T17:33:36.662Z,4.28
2023-07-31T17:36:03.480Z,4.70
2023-07-31T17:38:30.054Z,3.90
2023-07-31T17:40:56.657Z,6.55
2023-07-31T17:43:23.636Z,4.72
2023-07-31T17:45:50.202Z,3.53
2023-07-31T17:48:16.783Z,3.13
2023-07-31T17:50:43.451Z,4.32
2023-07-31T17:53:10.021Z,3.17
2023-07-31T17:55:36.622Z,3.60
2023-07-31T17:58:03.147Z,5.22
2023-07-31T18:00:30.554Z,3.85
2023-07-31T18:02:57.275Z,2.25
2023-07-31T18:05:23.915Z,3.65
2023-07-31T18:07:50.637Z,1.25
2023-07-31T18:10:17.307Z,1.95
2023-07-31T18:12:43.971Z,1.38
2023-07-31T18:15:11.127Z,2.33
2023-07-31T18:17:37.714Z,3.15
2023-07-31T18:20:06.871Z,2.22
2023-07-31T18:22:33.390Z,3.00
2023-07-31T18:24:59.958Z,1.30
2023-07-31T18:27:26.580Z,3.63
2023-07-31T18:29:53.120Z,2.20
2023-07-31T18:32:19.867Z,1.48
2023-07-31T18:34:46.448Z,4.03
2023-07-31T18:37:12.978Z,2.08
2023-07-31T18:39:39.558Z,2.15
2023-07-31T18:42:06.669Z,1.58
2023-07-31T18:44:33.273Z,2.33
2023-07-31T18:47:00.213Z,2.88
2023-07-31T18:49:26.799Z,2.72
2023-07-31T18:51:53.438Z,2.05
2023-07-31T18:54:20.090Z,2.55
2023-07-31T18:56:46.758Z,1.63
2023-07-31T18:59:13.426Z,5.07
2023-07-31T19:01:42.028Z,1.35
2023-07-31T19:04:08.750Z,1.58
2023-07-31T19:06:36.527Z,1.25
2023-07-31T19:09:05.232Z,2.78
2023-07-31T19:11:33.390Z,1.52
2023-07-31T19:14:01.009Z,0.65
2023-07-31T19:16:27.905Z,1.45
2023-07-31T19:18:54.528Z,0.80
2023-07-31T19:21:21.191Z,1.95
2023-07-31T19:23:48.020Z,0.75
2023-07-31T19:26:15.009Z,2.55
2023-07-31T19:28:41.675Z,0.80
2023-07-31T19:31:08.396Z,0.90
2023-07-31T19:33:35.007Z,3.53
2023-07-31T19:36:01.616Z,0.77
2023-07-31T19:38:28.536Z,4.15
2023-07-31T19:40:55.367Z,1.92
2023-07-31T19:43:22.084Z,0.57
2023-07-31T19:45:48.917Z,0.68
2023-07-31T19:48:16.732Z,0.43
2023-07-31T19:50:43.353Z,0.80
2023-07-31T19:53:10.004Z,1.05
2023-07-31T19:55:36.699Z,0.32
2023-07-31T19:58:03.445Z,0.40
2023-07-31T20:00:30.286Z,0.38
2023-07-31T20:02:57.078Z,0.40
2023-07-31T20:05:23.755Z,0.65
2023-07-31T20:07:50.424Z,1.38
2023-07-31T20:10:16.993Z,0.60
2023-07-31T20:12:43.626Z,1.15
2023-07-31T20:15:20.318Z,0.32
2023-07-31T20:17:47.219Z,1.58
2023-07-31T20:20:14.076Z,0.75
2023-07-31T20:22:43.100Z,0.75
2023-07-31T20:25:10.205Z,0.60
2023-07-31T20:27:36.947Z,1.88
2023-07-31T20:30:03.904Z,1.38
2023-07-31T20:32:30.661Z,2.42
2023-07-31T20:34:57.400Z,1.67
2023-07-31T20:37:24.058Z,1.25
2023-07-31T20:39:50.776Z,1.13
2023-07-31T20:42:21.142Z,0.82
2023-07-31T20:44:48.313Z,1.70
2023-07-31T20:47:14.900Z,1.85
2023-07-31T20:49:41.867Z,1.10
2023-07-31T20:52:08.500Z,1.77
2023-07-31T20:54:35.270Z,2.88
2023-07-31T20:57:01.876Z,1.27
2023-07-31T20:59:28.536Z,0.90
2023-07-31T21:01:55.282Z,1.33
2023-07-31T21:04:21.993Z,2.65
2023-07-31T21:06:48.618Z,1.70
2023-07-31T21:09:15.251Z,2.30
2023-07-31T21:11:41.882Z,3.08
2023-07-31T21:14:08.633Z,2.60
2023-07-31T21:16:35.251Z,1.23
2023-07-31T21:19:02.054Z,2.10
2023-07-31T21:21:28.680Z,1.25
2023-07-31T21:23:55.348Z,2.22
2023-07-31T21:26:22.032Z,1.20
2023-07-31T21:28:49.155Z,2.00
2023-07-31T21:31:16.468Z,1.30
2023-07-31T21:33:44.054Z,1.17
2023-07-31T21:36:10.633Z,1.63
2023-07-31T21:38:37.257Z,1.38
2023-07-31T21:41:05.396Z,1.23
2023-07-31T21:43:32.072Z,1.45
2023-07-31T21:45:58.908Z,0.80
2023-07-31T21:48:25.594Z,1.67
2023-07-31T21:50:52.259Z,0.90
2023-07-31T21:53:19.287Z,2.30
2023-07-31T21:55:46.109Z,0.73
2023-07-31T21:58:12.661Z,2.10
2023-07-31T22:00:39.343Z,2.40
2023-07-31T22:03:05.996Z,2.50
2023-07-31T22:05:32.613Z,2.05
2023-07-31T22:07:59.437Z,2.00
2023-07-31T22:10:26.042Z,0.88
2023-07-31T22:12:52.622Z,1.38
2023-07-31T22:15:19.218Z,0.95
2023-07-31T22:17:46.260Z,2.10
2023-07-31T22:20:12.964Z,2.33
2023-07-31T22:22:39.526Z,2.05
2023-07-31T22:25:06.532Z,0.50
2023-07-31T22:27:33.056Z,0.85
2023-07-31T22:29:59.668Z,0.57
2023-07-31T22:32:26.248Z,0.50
2023-07-31T22:34:52.973Z,1.45
2023-07-31T22:37:19.530Z,0.43
2023-07-31T22:39:46.089Z,0.30
2023-07-31T22:42:12.657Z,0.55
2023-07-31T22:44:39.356Z,0.82
2023-07-31T22:47:06.152Z,0.90
2023-07-31T22:49:32.806Z,0.60
2023-07-31T22:51:59.388Z,0.70
2023-07-31T22:54:25.980Z,0.95
2023-07-31T22:56:52.607Z,0.93
2023-07-31T22:59:19.160Z,0.85
2023-07-31T23:01:45.776Z,0.73
2023-07-31T23:04:12.464Z,0.93
2023-07-31T23:06:39.337Z,1.05
2023-07-31T23:09:06.072Z,0.77
2023-07-31T23:11:32.685Z,1.15
2023-07-31T23:13:59.229Z,0.50
2023-07-31T23:16:25.877Z,1.05
2023-07-31T23:18:52.492Z,0.70
2023-07-31T23:21:19.059Z,0.85
2023-07-31T23:23:45.626Z,0.75
2023-07-31T23:26:12.263Z,0.45
2023-07-31T23:28:38.900Z,0.70
2023-07-31T23:31:05.746Z,0.55
2023-07-31T23:33:32.748Z,0.82
2023-07-31T23:36:08.404Z,5.63
2023-07-31T23:38:34.982Z,0.60
2023-07-31T23:41:01.543Z,2.70
2023-07-31T23:43:28.148Z,3.28
2023-07-31T23:45:54.742Z,1.08
2023-07-31T23:48:21.375Z,1.50
2023-07-31T23:50:48.025Z,0.95
2023-07-31T23:53:14.736Z,2.40
2023-07-31T23:55:41.347Z,1.77
2023-07-31T23:58:08.258Z,1.10
